Terminal Aerodrome Forecast
Issued by NWS Upton, NY

Home | Current Version | Previous Version | Text Only | Print | Product List | Glossary On
Versions: 1 2 3 4 5 6 7 8 9 10 11 12 13 14 15 16 17 18 19 20 21 22 23 24 25 26 27 28 29 30 31 32 33
658
FTUS41 KOKX 192052 AAB
TAFLGA
TAF AMD
KLGA 192052Z 1921/2024 33013G21KT P6SM VCSH SCT020 BKN035
      TEMPO 1921/1923 BKN020
     FM192300 31017G27KT P6SM BKN050
     FM200600 31016G24KT P6SM SCT050
     FM201300 32020G28KT P6SM SCT250=

USA.gov is the U.S. government's official web portal to all federal, state and local government web resources and services.